Time;durP1;ratioP1;P1;durP2;ratioP2;P2;SDS_P1;SDS_P2;PMS_P1;PMS_P2;Temp;Humidity;BMP_temperature;BMP_pressure;BME280_temperature;BME280_humidity;BME280_pressure;Samples;Min_cycle;Max_cycle;Signal;HPM_P1;HPM_P2
2023/12/14 00:00:31;;;;;;;3.13;2.20;;;;;;;;;;4923075;29;20583;-74
2023/12/14 00:02:56;;;;;;;1.77;1.60;;;;;;;;;;4930880;29;20181;-74
2023/12/14 00:05:21;;;;;;;2.63;1.77;;;;;;;;;;4926013;29;20251;-74
2023/12/14 00:07:47;;;;;;;2.83;1.67;;;;;;;;;;4927077;29;20263;-74
2023/12/14 00:10:12;;;;;;;3.03;1.67;;;;;;;;;;4929740;29;20201;-73
2023/12/14 00:12:37;;;;;;;2.20;2.00;;;;;;;;;;4930188;29;20183;-74
2023/12/14 00:15:03;;;;;;;2.70;2.00;;;;;;;;;;4931586;29;20187;-74
2023/12/14 00:17:28;;;;;;;2.67;1.80;;;;;;;;;;4930765;29;20297;-74
2023/12/14 00:19:53;;;;;;;2.30;2.10;;;;;;;;;;4929891;29;20486;-73
2023/12/14 00:22:18;;;;;;;2.20;2.00;;;;;;;;;;4931753;29;20287;-74
2023/12/14 00:24:43;;;;;;;3.07;2.07;;;;;;;;;;4929721;29;20243;-74
2023/12/14 00:27:09;;;;;;;3.00;1.90;;;;;;;;;;4930422;29;20184;-74
2023/12/14 00:29:34;;;;;;;2.97;2.00;;;;;;;;;;4927660;29;20199;-74
2023/12/14 00:31:59;;;;;;;1.90;1.80;;;;;;;;;;4925101;29;20187;-74
2023/12/14 00:34:24;;;;;;;2.87;1.90;;;;;;;;;;4927692;29;20178;-74
2023/12/14 00:36:50;;;;;;;2.17;1.97;;;;;;;;;;4931864;29;20190;-74
2023/12/14 00:39:15;;;;;;;2.40;2.10;;;;;;;;;;4924624;29;20187;-74
2023/12/14 00:41:40;;;;;;;3.00;2.00;;;;;;;;;;4931663;29;20191;-74
2023/12/14 00:44:05;;;;;;;2.53;1.93;;;;;;;;;;4923377;29;20210;-74
2023/12/14 00:46:30;;;;;;;3.23;2.33;;;;;;;;;;4929440;29;20270;-74
2023/12/14 00:48:56;;;;;;;3.10;2.23;;;;;;;;;;4931928;29;20279;-74
2023/12/14 00:51:21;;;;;;;2.90;2.03;;;;;;;;;;4939554;29;20185;-73
2023/12/14 00:53:46;;;;;;;2.33;2.10;;;;;;;;;;4923093;29;20232;-74
2023/12/14 00:56:11;;;;;;;2.50;2.00;;;;;;;;;;4923227;29;20186;-74
2023/12/14 00:58:37;;;;;;;2.10;1.77;;;;;;;;;;4926924;29;20235;-74
2023/12/14 01:01:02;;;;;;;3.27;1.70;;;;;;;;;;4931033;29;20238;-74
2023/12/14 01:03:27;;;;;;;3.60;1.90;;;;;;;;;;4926996;29;20222;-74
2023/12/14 01:05:52;;;;;;;2.57;1.83;;;;;;;;;;4930943;29;20232;-74
2023/12/14 01:08:17;;;;;;;2.40;1.33;;;;;;;;;;4931766;29;20190;-74
2023/12/14 01:10:43;;;;;;;2.30;1.40;;;;;;;;;;4925927;29;20214;-74
2023/12/14 01:13:08;;;;;;;1.40;1.30;;;;;;;;;;4927881;29;20186;-74
2023/12/14 01:15:33;;;;;;;1.77;1.50;;;;;;;;;;4928707;29;20178;-74
2023/12/14 01:17:59;;;;;;;1.70;1.40;;;;;;;;;;4923164;29;20462;-74
2023/12/14 01:20:24;;;;;;;1.47;1.37;;;;;;;;;;4930719;29;20183;-73
2023/12/14 01:22:49;;;;;;;2.13;1.70;;;;;;;;;;4928361;29;20177;-74
2023/12/14 01:25:14;;;;;;;1.57;1.47;;;;;;;;;;4922358;29;20209;-74
2023/12/14 01:27:40;;;;;;;2.90;1.30;;;;;;;;;;4920900;29;20267;-74
2023/12/14 01:30:05;;;;;;;4.07;1.80;;;;;;;;;;4929423;29;20183;-74
2023/12/14 01:32:30;;;;;;;2.30;2.10;;;;;;;;;;4926834;29;20252;-74
2023/12/14 01:34:55;;;;;;;1.60;1.50;;;;;;;;;;4932956;29;20178;-74
2023/12/14 01:37:21;;;;;;;1.67;1.37;;;;;;;;;;4932316;29;20198;-74
2023/12/14 01:39:46;;;;;;;2.07;1.50;;;;;;;;;;4931209;29;20185;-74
2023/12/14 01:42:11;;;;;;;1.70;1.60;;;;;;;;;;4931791;29;20226;-74
2023/12/14 01:44:36;;;;;;;2.97;1.33;;;;;;;;;;4935016;29;20203;-74
2023/12/14 01:47:01;;;;;;;3.00;1.20;;;;;;;;;;4928062;29;20182;-74
2023/12/14 01:49:27;;;;;;;1.30;1.20;;;;;;;;;;4926231;29;20185;-73
2023/12/14 01:51:52;;;;;;;1.80;1.60;;;;;;;;;;4925529;29;20205;-74
2023/12/14 01:54:17;;;;;;;1.40;1.30;;;;;;;;;;4931551;29;20238;-74
2023/12/14 01:56:43;;;;;;;1.60;1.50;;;;;;;;;;4926741;29;20187;-73
2023/12/14 01:59:08;;;;;;;1.40;1.30;;;;;;;;;;4925850;29;20188;-73
2023/12/14 02:01:43;;;;;;;1.40;1.30;;;;;;;;;;4920935;29;20188;-74
2023/12/14 02:04:08;;;;;;;2.10;1.77;;;;;;;;;;4930376;29;20222;-74
2023/12/14 02:06:33;;;;;;;3.53;1.90;;;;;;;;;;4928020;29;20220;-74
2023/12/14 02:08:59;;;;;;;2.30;2.10;;;;;;;;;;4929825;29;20201;-74
2023/12/14 02:11:24;;;;;;;2.93;2.30;;;;;;;;;;4924804;29;20178;-74
2023/12/14 02:13:49;;;;;;;3.53;2.13;;;;;;;;;;4921462;29;20185;-74
2023/12/14 02:16:15;;;;;;;4.87;2.33;;;;;;;;;;4928163;29;20188;-74
2023/12/14 02:18:40;;;;;;;3.70;2.10;;;;;;;;;;4918245;29;20205;-74
2023/12/14 02:21:05;;;;;;;3.07;2.53;;;;;;;;;;4925656;29;20188;-73
2023/12/14 02:23:30;;;;;;;3.87;3.27;;;;;;;;;;4922627;29;20182;-74
2023/12/14 02:25:56;;;;;;;2.77;2.57;;;;;;;;;;4923304;29;20208;-74
2023/12/14 02:28:21;;;;;;;3.00;2.70;;;;;;;;;;4923705;29;20191;-74
2023/12/14 02:30:46;;;;;;;2.90;2.60;;;;;;;;;;4926914;29;20189;-74
2023/12/14 02:33:11;;;;;;;3.03;2.47;;;;;;;;;;4922075;29;20267;-74
2023/12/14 02:38:03;;;;;;;3.40;2.70;;;;;;;;;;4929213;29;20235;-74
2023/12/14 02:40:29;;;;;;;2.90;2.50;;;;;;;;;;4931978;29;20202;-74
2023/12/14 02:42:54;;;;;;;2.73;2.50;;;;;;;;;;4929799;29;20269;-74
2023/12/14 02:45:19;;;;;;;2.33;2.13;;;;;;;;;;4930297;29;20210;-74
2023/12/14 02:47:46;;;;;;;2.60;2.40;;;;;;;;;;4930100;29;20183;-74
2023/12/14 02:50:12;;;;;;;6.00;2.80;;;;;;;;;;4931023;29;20238;-74
2023/12/14 02:52:37;;;;;;;2.40;2.07;;;;;;;;;;4930568;29;20188;-74
2023/12/14 02:55:02;;;;;;;2.97;2.30;;;;;;;;;;4929111;29;20197;-74
2023/12/14 02:57:27;;;;;;;4.60;2.27;;;;;;;;;;4927122;29;20226;-74
2023/12/14 02:59:53;;;;;;;5.50;2.97;;;;;;;;;;4929388;29;20191;-74
2023/12/14 03:02:18;;;;;;;2.40;2.20;;;;;;;;;;4931259;29;20244;-74
2023/12/14 03:04:43;;;;;;;4.77;2.63;;;;;;;;;;4927186;29;20196;-74
2023/12/14 03:07:09;;;;;;;4.03;2.80;;;;;;;;;;4930675;29;20308;-74
2023/12/14 03:09:34;;;;;;;2.27;2.07;;;;;;;;;;4930694;29;20283;-74
2023/12/14 03:12:00;;;;;;;2.00;1.80;;;;;;;;;;4929824;29;20314;-74
2023/12/14 03:14:26;;;;;;;2.40;2.20;;;;;;;;;;4940296;28;20189;-74
2023/12/14 03:16:51;;;;;;;3.20;2.53;;;;;;;;;;4928855;29;20186;-74
2023/12/14 03:19:16;;;;;;;2.53;2.20;;;;;;;;;;4930041;29;20199;-74
2023/12/14 03:21:42;;;;;;;2.80;2.50;;;;;;;;;;4930305;29;20181;-74
2023/12/14 03:24:07;;;;;;;3.13;2.40;;;;;;;;;;4929503;29;20205;-74
2023/12/14 03:26:33;;;;;;;2.33;2.13;;;;;;;;;;4928844;29;20272;-74
2023/12/14 03:28:58;;;;;;;2.83;2.10;;;;;;;;;;4928451;29;20212;-74
2023/12/14 03:31:23;;;;;;;2.27;2.07;;;;;;;;;;4930591;29;20170;-74
2023/12/14 03:33:48;;;;;;;3.70;2.07;;;;;;;;;;4929239;29;20272;-74
2023/12/14 03:36:13;;;;;;;2.00;1.80;;;;;;;;;;4929850;29;20237;-74
2023/12/14 03:38:39;;;;;;;2.00;1.70;;;;;;;;;;4930873;29;20218;-74
2023/12/14 03:41:04;;;;;;;1.90;1.70;;;;;;;;;;4923446;29;20192;-74
2023/12/14 03:43:29;;;;;;;1.90;1.80;;;;;;;;;;4929889;29;20182;-74
2023/12/14 03:45:54;;;;;;;3.47;2.17;;;;;;;;;;4928214;29;20202;-73
2023/12/14 03:48:19;;;;;;;2.10;1.90;;;;;;;;;;4926334;29;20187;-74
2023/12/14 03:50:45;;;;;;;1.97;1.77;;;;;;;;;;4928740;29;20183;-74
2023/12/14 03:53:10;;;;;;;1.87;1.70;;;;;;;;;;4924437;29;20176;-74
2023/12/14 03:55:35;;;;;;;2.27;2.00;;;;;;;;;;4930204;29;20182;-74
2023/12/14 03:58:00;;;;;;;1.70;1.60;;;;;;;;;;4925062;29;20326;-74
2023/12/14 04:00:26;;;;;;;1.67;1.57;;;;;;;;;;4928604;29;20249;-74
2023/12/14 04:02:51;;;;;;;1.90;1.80;;;;;;;;;;4944044;29;20257;-74
2023/12/14 04:05:16;;;;;;;2.00;1.80;;;;;;;;;;4927173;29;20203;-74
2023/12/14 04:07:41;;;;;;;1.87;1.77;;;;;;;;;;4926476;29;20219;-74
2023/12/14 04:10:08;;;;;;;1.73;1.63;;;;;;;;;;4927408;29;20176;-74
2023/12/14 04:12:33;;;;;;;1.67;1.57;;;;;;;;;;4941108;29;20267;-74
2023/12/14 04:14:59;;;;;;;2.20;1.80;;;;;;;;;;4922302;29;20204;-74
2023/12/14 04:17:24;;;;;;;2.43;2.30;;;;;;;;;;4925024;29;20280;-74
2023/12/14 04:19:49;;;;;;;2.30;2.10;;;;;;;;;;4930234;29;20184;-74
2023/12/14 04:22:15;;;;;;;1.70;1.60;;;;;;;;;;4926232;29;20193;-74
2023/12/14 04:24:40;;;;;;;1.80;1.70;;;;;;;;;;4924589;29;20216;-74
2023/12/14 04:27:05;;;;;;;1.40;1.30;;;;;;;;;;4926444;29;20185;-74
2023/12/14 04:29:30;;;;;;;1.30;1.20;;;;;;;;;;4929947;29;20185;-74
2023/12/14 04:31:56;;;;;;;1.33;1.23;;;;;;;;;;4924235;29;20188;-74
2023/12/14 04:34:21;;;;;;;1.50;1.40;;;;;;;;;;4922989;29;20238;-74
2023/12/14 04:36:46;;;;;;;1.30;1.20;;;;;;;;;;4926460;29;20238;-75
2023/12/14 04:39:11;;;;;;;1.50;1.40;;;;;;;;;;4924107;29;20264;-74
2023/12/14 04:41:37;;;;;;;1.37;1.07;;;;;;;;;;4930650;29;20257;-74
2023/12/14 04:44:02;;;;;;;1.57;1.23;;;;;;;;;;4932447;29;20232;-74
2023/12/14 04:46:27;;;;;;;1.70;0.90;;;;;;;;;;4926736;29;20266;-74
2023/12/14 04:48:52;;;;;;;1.20;1.10;;;;;;;;;;4925007;29;20195;-74
2023/12/14 04:51:18;;;;;;;1.07;0.97;;;;;;;;;;4928586;29;20176;-74
2023/12/14 04:53:43;;;;;;;1.00;1.00;;;;;;;;;;4928666;29;20254;-74
2023/12/14 04:56:11;;;;;;;1.40;1.30;;;;;;;;;;4930259;29;20180;-74
2023/12/14 04:58:40;;;;;;;1.00;0.90;;;;;;;;;;4934638;29;20183;-74
2023/12/14 05:01:05;;;;;;;1.43;1.33;;;;;;;;;;4932182;29;20212;-74
2023/12/14 05:03:31;;;;;;;1.90;1.70;;;;;;;;;;4924829;29;20185;-74
2023/12/14 05:05:56;;;;;;;2.77;1.93;;;;;;;;;;4932365;29;20639;-73
2023/12/14 05:08:21;;;;;;;2.03;1.27;;;;;;;;;;4932433;29;20175;-74
2023/12/14 05:10:47;;;;;;;1.23;1.13;;;;;;;;;;4930741;29;20188;-74
2023/12/14 05:13:12;;;;;;;1.73;1.20;;;;;;;;;;4931332;29;20179;-74
2023/12/14 05:15:37;;;;;;;3.50;2.53;;;;;;;;;;4931553;29;20186;-74
2023/12/14 05:18:02;;;;;;;28.07;15.27;;;;;;;;;;4928214;29;20187;-74
2023/12/14 05:20:27;;;;;;;14.63;7.50;;;;;;;;;;4931064;29;20255;-74
2023/12/14 05:22:53;;;;;;;13.70;8.10;;;;;;;;;;4929724;29;20183;-74
2023/12/14 05:25:18;;;;;;;5.60;3.23;;;;;;;;;;4930953;29;20450;-74
2023/12/14 05:27:43;;;;;;;4.37;2.70;;;;;;;;;;4923477;29;20181;-75
2023/12/14 05:30:09;;;;;;;2.83;2.63;;;;;;;;;;4924532;29;20182;-74
2023/12/14 05:32:34;;;;;;;3.10;2.40;;;;;;;;;;4933488;29;20170;-74
2023/12/14 05:34:59;;;;;;;1.73;1.63;;;;;;;;;;4926863;29;20279;-74
2023/12/14 05:37:25;;;;;;;1.40;1.17;;;;;;;;;;4931668;29;20232;-74
2023/12/14 05:39:50;;;;;;;0.87;0.87;;;;;;;;;;4927954;29;20223;-74
2023/12/14 05:42:18;;;;;;;1.43;1.27;;;;;;;;;;4929265;29;20214;-74
2023/12/14 05:44:44;;;;;;;1.73;1.27;;;;;;;;;;4929193;29;20296;-74
2023/12/14 05:47:10;;;;;;;1.00;0.90;;;;;;;;;;4923096;29;20291;-74
2023/12/14 05:49:35;;;;;;;1.33;1.23;;;;;;;;;;4930161;29;20271;-73
2023/12/14 05:52:00;;;;;;;1.33;1.10;;;;;;;;;;4930351;29;20183;-74
2023/12/14 05:54:25;;;;;;;0.90;0.90;;;;;;;;;;4930000;29;20177;-74
2023/12/14 05:56:51;;;;;;;1.30;1.20;;;;;;;;;;4930725;29;20192;-74
2023/12/14 05:59:16;;;;;;;1.30;1.20;;;;;;;;;;4930232;29;20200;-74
2023/12/14 06:01:42;;;;;;;1.97;1.87;;;;;;;;;;4932571;29;20183;-74
2023/12/14 06:04:08;;;;;;;1.40;1.30;;;;;;;;;;4930633;29;20205;-75
2023/12/14 06:06:33;;;;;;;1.47;1.37;;;;;;;;;;4930606;29;20209;-74
2023/12/14 06:08:58;;;;;;;1.37;1.27;;;;;;;;;;4930981;29;20188;-74
2023/12/14 06:11:23;;;;;;;1.53;1.20;;;;;;;;;;4930393;29;20177;-74
2023/12/14 06:13:49;;;;;;;2.83;1.50;;;;;;;;;;4929765;29;20512;-74
2023/12/14 06:16:14;;;;;;;1.23;1.13;;;;;;;;;;4930847;29;20201;-74
2023/12/14 06:18:41;;;;;;;1.50;1.40;;;;;;;;;;4931850;29;20186;-74
2023/12/14 06:21:06;;;;;;;1.20;1.10;;;;;;;;;;4930900;29;20272;-74
2023/12/14 06:23:31;;;;;;;1.83;1.63;;;;;;;;;;4929800;29;20316;-74
2023/12/14 06:25:58;;;;;;;3.00;1.60;;;;;;;;;;4927893;29;20209;-74
2023/12/14 06:28:23;;;;;;;1.40;1.30;;;;;;;;;;4932020;29;20193;-74
2023/12/14 06:30:48;;;;;;;2.13;1.90;;;;;;;;;;4930334;29;20180;-74
2023/12/14 06:33:13;;;;;;;2.83;2.53;;;;;;;;;;4930441;29;20267;-74
2023/12/14 06:35:39;;;;;;;6.13;3.43;;;;;;;;;;4928179;29;20184;-73
2023/12/14 06:38:04;;;;;;;7.57;4.07;;;;;;;;;;4931189;29;20240;-74
2023/12/14 06:40:29;;;;;;;6.73;3.90;;;;;;;;;;4931366;29;20197;-74
2023/12/14 06:42:54;;;;;;;5.37;3.57;;;;;;;;;;4931556;29;20266;-74
2023/12/14 06:45:19;;;;;;;7.33;3.87;;;;;;;;;;4930312;29;20203;-73
2023/12/14 06:47:46;;;;;;;5.50;4.50;;;;;;;;;;4930977;29;20234;-74
2023/12/14 06:50:12;;;;;;;7.77;5.40;;;;;;;;;;4929054;29;20254;-74
2023/12/14 06:52:37;;;;;;;7.23;6.20;;;;;;;;;;4930161;29;20178;-74
2023/12/14 06:55:02;;;;;;;4.00;3.60;;;;;;;;;;4929622;29;20188;-74
2023/12/14 06:57:29;;;;;;;5.40;3.60;;;;;;;;;;4930049;29;20217;-74
2023/12/14 06:59:54;;;;;;;15.23;4.73;;;;;;;;;;4928743;29;20194;-74
2023/12/14 07:02:20;;;;;;;5.40;4.00;;;;;;;;;;4929546;29;20190;-74
2023/12/14 07:04:45;;;;;;;5.80;3.67;;;;;;;;;;4928619;29;20204;-72
2023/12/14 07:07:12;;;;;;;5.23;4.60;;;;;;;;;;4928407;29;20190;-74
2023/12/14 07:09:37;;;;;;;8.80;4.97;;;;;;;;;;4930425;29;20210;-74
2023/12/14 07:12:03;;;;;;;13.93;6.67;;;;;;;;;;4930293;29;20205;-74
2023/12/14 07:14:29;;;;;;;8.57;5.63;;;;;;;;;;4930047;29;20188;-74
2023/12/14 07:16:54;;;;;;;5.80;4.50;;;;;;;;;;4929085;29;20182;-74
2023/12/14 07:19:19;;;;;;;6.30;4.67;;;;;;;;;;4946206;29;20213;-74
2023/12/14 07:21:44;;;;;;;6.17;4.40;;;;;;;;;;4931767;29;20190;-75
2023/12/14 07:24:09;;;;;;;3.30;2.77;;;;;;;;;;4929466;29;20300;-74
2023/12/14 07:26:34;;;;;;;5.40;3.77;;;;;;;;;;4922259;29;20181;-74
2023/12/14 07:29:00;;;;;;;4.57;3.40;;;;;;;;;;4928171;29;20177;-74
2023/12/14 07:31:27;;;;;;;4.43;3.50;;;;;;;;;;4943829;29;20178;-74
2023/12/14 07:33:52;;;;;;;4.33;3.90;;;;;;;;;;4924010;29;20281;-72
2023/12/14 07:36:17;;;;;;;3.47;3.17;;;;;;;;;;4929724;29;20310;-73
2023/12/14 07:38:42;;;;;;;3.97;3.57;;;;;;;;;;4931436;29;20183;-73
2023/12/14 07:41:08;;;;;;;4.37;3.47;;;;;;;;;;4927103;29;20188;-73
2023/12/14 07:43:33;;;;;;;4.00;3.40;;;;;;;;;;4929681;29;20182;-73
2023/12/14 07:45:58;;;;;;;4.13;3.13;;;;;;;;;;4927362;29;20199;-73
2023/12/14 07:48:24;;;;;;;5.57;3.27;;;;;;;;;;4930075;29;20180;-73
2023/12/14 07:50:49;;;;;;;2.80;2.47;;;;;;;;;;4930717;29;20183;-73
2023/12/14 07:53:14;;;;;;;5.30;3.30;;;;;;;;;;4926680;29;20187;-73
2023/12/14 07:55:39;;;;;;;4.87;3.10;;;;;;;;;;4926918;29;20189;-73
2023/12/14 07:58:05;;;;;;;5.80;3.33;;;;;;;;;;4928333;29;20188;-73
2023/12/14 08:00:30;;;;;;;2.90;2.30;;;;;;;;;;4920297;29;20199;-72
2023/12/14 08:02:55;;;;;;;4.57;2.50;;;;;;;;;;4926863;29;20196;-73
2023/12/14 08:05:20;;;;;;;3.50;2.10;;;;;;;;;;4929720;29;20196;-73
2023/12/14 08:07:45;;;;;;;2.30;2.10;;;;;;;;;;4930216;29;20260;-73
2023/12/14 08:10:11;;;;;;;5.27;2.90;;;;;;;;;;4930801;29;20193;-73
2023/12/14 08:12:36;;;;;;;3.40;2.17;;;;;;;;;;4928328;29;20182;-73
2023/12/14 08:15:01;;;;;;;4.37;2.47;;;;;;;;;;4925653;29;20330;-73
2023/12/14 08:17:27;;;;;;;4.03;2.10;;;;;;;;;;4933451;29;20179;-74
2023/12/14 08:19:53;;;;;;;2.93;1.90;;;;;;;;;;4934738;29;20185;-73
2023/12/14 08:22:18;;;;;;;3.33;2.17;;;;;;;;;;4933962;29;20179;-73
2023/12/14 08:24:44;;;;;;;4.03;2.30;;;;;;;;;;4934649;29;20200;-73
2023/12/14 08:27:09;;;;;;;3.50;2.20;;;;;;;;;;4933183;29;20195;-74
2023/12/14 08:29:34;;;;;;;4.17;2.30;;;;;;;;;;4925626;29;20178;-73
2023/12/14 08:31:59;;;;;;;3.47;2.80;;;;;;;;;;4932352;29;20239;-73
2023/12/14 08:34:25;;;;;;;3.53;3.10;;;;;;;;;;4933184;29;20275;-74
2023/12/14 08:36:50;;;;;;;4.40;3.17;;;;;;;;;;4934476;29;20242;-73
2023/12/14 08:39:15;;;;;;;5.43;2.50;;;;;;;;;;4933621;29;20182;-73
2023/12/14 08:41:41;;;;;;;4.70;3.27;;;;;;;;;;4928160;29;20182;-73
2023/12/14 08:44:06;;;;;;;3.73;3.33;;;;;;;;;;4933031;29;20238;-73
2023/12/14 08:46:38;;;;;;;4.03;3.60;;;;;;;;;;4942281;29;20185;-73
2023/12/14 08:49:03;;;;;;;4.87;3.50;;;;;;;;;;4930951;29;20180;-74
2023/12/14 08:51:29;;;;;;;4.67;3.83;;;;;;;;;;4949706;29;20168;-73
2023/12/14 08:53:55;;;;;;;5.20;3.57;;;;;;;;;;4934607;29;20165;-73
2023/12/14 08:56:20;;;;;;;5.17;3.80;;;;;;;;;;4934033;29;20239;-74
2023/12/14 08:58:46;;;;;;;5.47;3.17;;;;;;;;;;4947030;29;20242;-73
2023/12/14 09:01:11;;;;;;;6.03;4.07;;;;;;;;;;4931320;29;20187;-73
2023/12/14 09:03:36;;;;;;;5.47;4.63;;;;;;;;;;4928988;29;20289;-73
2023/12/14 09:06:05;;;;;;;5.80;4.83;;;;;;;;;;4931686;29;20361;-73
2023/12/14 09:08:30;;;;;;;7.77;5.10;;;;;;;;;;4949385;29;20188;-73
2023/12/14 09:10:55;;;;;;;6.67;5.20;;;;;;;;;;4933726;29;20176;-73
2023/12/14 09:13:21;;;;;;;6.40;5.27;;;;;;;;;;4933081;29;20176;-73
2023/12/14 09:15:46;;;;;;;7.00;4.97;;;;;;;;;;4919954;29;20187;-73
2023/12/14 09:18:11;;;;;;;5.33;3.20;;;;;;;;;;4932900;29;20243;-73
2023/12/14 09:20:37;;;;;;;9.53;4.60;;;;;;;;;;4933213;29;20276;-73
2023/12/14 09:23:02;;;;;;;10.07;4.30;;;;;;;;;;4933822;29;20259;-73
2023/12/14 09:25:28;;;;;;;7.63;4.40;;;;;;;;;;4927562;29;20255;-73
2023/12/14 09:27:53;;;;;;;5.40;4.90;;;;;;;;;;4929436;29;20179;-73
2023/12/14 09:30:18;;;;;;;7.77;4.07;;;;;;;;;;4931564;29;20178;-73
2023/12/14 09:32:43;;;;;;;4.37;3.57;;;;;;;;;;4932350;29;20643;-73
2023/12/14 09:35:09;;;;;;;5.83;5.13;;;;;;;;;;4931335;29;20185;-73
2023/12/14 09:37:34;;;;;;;6.77;4.10;;;;;;;;;;4932998;29;20236;-73
2023/12/14 09:39:59;;;;;;;5.97;5.17;;;;;;;;;;4948385;29;20184;-73
2023/12/14 09:42:24;;;;;;;12.70;9.30;;;;;;;;;;4932043;29;20469;-73
2023/12/14 09:44:50;;;;;;;9.77;7.53;;;;;;;;;;4921325;29;20203;-72
2023/12/14 09:47:15;;;;;;;14.50;9.50;;;;;;;;;;4923893;29;20195;-73
2023/12/14 09:49:42;;;;;;;7.57;6.30;;;;;;;;;;4930430;29;20217;-73
2023/12/14 09:52:08;;;;;;;8.40;5.27;;;;;;;;;;4929585;29;20219;-73
2023/12/14 09:54:33;;;;;;;4.93;4.33;;;;;;;;;;4933435;29;20181;-73
2023/12/14 09:56:58;;;;;;;7.63;5.80;;;;;;;;;;4931147;29;20186;-74
2023/12/14 09:59:23;;;;;;;4.97;4.40;;;;;;;;;;4930687;29;20185;-73
2023/12/14 10:01:48;;;;;;;14.47;7.97;;;;;;;;;;4928390;29;20240;-73
2023/12/14 10:04:14;;;;;;;4.57;3.73;;;;;;;;;;4930025;29;20209;-73
2023/12/14 10:06:40;;;;;;;5.90;4.87;;;;;;;;;;4932417;29;20209;-73
2023/12/14 10:09:17;;;;;;;5.17;3.93;;;;;;;;;;4929870;29;20186;-73
2023/12/14 10:11:43;;;;;;;5.47;4.27;;;;;;;;;;4926604;29;20200;-73
2023/12/14 10:14:21;;;;;;;9.47;6.73;;;;;;;;;;4930317;29;20196;-73
2023/12/14 10:16:47;;;;;;;6.73;5.07;;;;;;;;;;4928732;29;20179;-73
2023/12/14 10:19:12;;;;;;;8.53;5.17;;;;;;;;;;4924378;29;20249;-72
2023/12/14 10:21:37;;;;;;;5.93;4.73;;;;;;;;;;4926776;29;20177;-73
2023/12/14 10:24:03;;;;;;;5.50;3.63;;;;;;;;;;4930176;29;20184;-73
2023/12/14 10:26:28;;;;;;;3.97;3.13;;;;;;;;;;4930404;29;20220;-73
2023/12/14 10:28:53;;;;;;;4.60;3.50;;;;;;;;;;4926440;29;20174;-73
2023/12/14 10:31:21;;;;;;;3.97;3.47;;;;;;;;;;4930464;29;20321;-73
2023/12/14 10:33:47;;;;;;;4.20;3.50;;;;;;;;;;4925860;29;20172;-73
2023/12/14 10:36:20;;;;;;;4.67;3.83;;;;;;;;;;4922927;29;20244;-72
2023/12/14 10:38:47;;;;;;;4.53;4.13;;;;;;;;;;4925758;29;20183;-73
2023/12/14 10:41:13;;;;;;;3.87;3.47;;;;;;;;;;4923185;29;20183;-73
2023/12/14 10:43:39;;;;;;;3.70;2.70;;;;;;;;;;4926530;29;20189;-72
2023/12/14 10:46:07;;;;;;;4.53;3.40;;;;;;;;;;4929612;29;20261;-73
2023/12/14 10:48:32;;;;;;;3.80;3.30;;;;;;;;;;4931076;29;20181;-73
2023/12/14 10:50:59;;;;;;;3.43;3.10;;;;;;;;;;4931715;29;20200;-73
2023/12/14 10:53:25;;;;;;;3.63;3.03;;;;;;;;;;4931264;29;20257;-73
2023/12/14 10:55:51;;;;;;;5.20;3.30;;;;;;;;;;4925039;29;20262;-73
2023/12/14 10:58:16;;;;;;;5.27;4.80;;;;;;;;;;4945593;29;20192;-73
2023/12/14 11:00:42;;;;;;;5.83;4.57;;;;;;;;;;4931178;29;20181;-72
2023/12/14 11:03:07;;;;;;;6.50;5.87;;;;;;;;;;4930167;29;20181;-73
2023/12/14 11:05:34;;;;;;;4.23;3.80;;;;;;;;;;4931430;29;20190;-73
2023/12/14 11:08:05;;;;;;;4.57;4.03;;;;;;;;;;4929671;29;20179;-74
2023/12/14 11:10:39;;;;;;;4.97;4.40;;;;;;;;;;4922351;29;20279;-73
2023/12/14 11:13:09;;;;;;;8.43;6.73;;;;;;;;;;4924030;29;20189;-73
2023/12/14 11:15:35;;;;;;;4.30;3.90;;;;;;;;;;4928262;29;20178;-73
2023/12/14 11:18:12;;;;;;;5.37;4.80;;;;;;;;;;4923373;29;20215;-74
2023/12/14 11:20:58;;;;;;;4.70;4.10;;;;;;;;;;4930714;29;20185;-72
2023/12/14 11:23:24;;;;;;;4.67;4.00;;;;;;;;;;4921059;29;20193;-73
2023/12/14 11:25:54;;;;;;;4.87;4.27;;;;;;;;;;4931972;29;20225;-73
2023/12/14 11:28:19;;;;;;;6.43;4.13;;;;;;;;;;4929442;29;20912;-73
2023/12/14 11:30:45;;;;;;;5.13;4.00;;;;;;;;;;4931549;29;20180;-73
2023/12/14 11:33:11;;;;;;;4.53;3.90;;;;;;;;;;4928012;29;22300;-73
2023/12/14 11:35:36;;;;;;;4.43;3.60;;;;;;;;;;4930122;29;20178;-74
2023/12/14 11:38:05;;;;;;;6.10;4.30;;;;;;;;;;4928827;29;20239;-73
2023/12/14 11:40:30;;;;;;;5.60;4.27;;;;;;;;;;4931346;29;20181;-73
2023/12/14 11:42:59;;;;;;;5.57;4.20;;;;;;;;;;4938149;29;20275;-73
2023/12/14 11:45:25;;;;;;;5.10;4.33;;;;;;;;;;4928390;29;20214;-73
2023/12/14 11:47:50;;;;;;;8.57;4.40;;;;;;;;;;4929625;29;20199;-73
2023/12/14 11:50:16;;;;;;;4.40;4.00;;;;;;;;;;4926145;29;20170;-73
2023/12/14 11:52:41;;;;;;;5.87;4.60;;;;;;;;;;4930270;29;20182;-73
2023/12/14 11:55:07;;;;;;;5.37;4.70;;;;;;;;;;4944850;29;20185;-73
2023/12/14 11:57:32;;;;;;;4.77;4.17;;;;;;;;;;4931472;29;20186;-73
2023/12/14 11:59:58;;;;;;;5.90;4.53;;;;;;;;;;4929990;29;20353;-72
2023/12/14 12:02:25;;;;;;;5.13;4.43;;;;;;;;;;4925859;29;20273;-73
2023/12/14 12:04:51;;;;;;;5.07;4.57;;;;;;;;;;4937950;28;20244;-72
2023/12/14 12:07:16;;;;;;;5.57;5.07;;;;;;;;;;4929802;29;20278;-73
2023/12/14 12:09:42;;;;;;;5.83;4.87;;;;;;;;;;4930703;29;20262;-73
2023/12/14 12:12:12;;;;;;;4.80;4.20;;;;;;;;;;4929474;29;20182;-73
2023/12/14 12:14:37;;;;;;;6.43;4.20;;;;;;;;;;4926855;29;20177;-73
2023/12/14 12:17:04;;;;;;;4.83;3.63;;;;;;;;;;4928233;29;20246;-73
2023/12/14 12:19:29;;;;;;;4.37;2.87;;;;;;;;;;4929346;29;20185;-73
2023/12/14 12:21:54;;;;;;;3.67;3.23;;;;;;;;;;4924515;29;20186;-73
2023/12/14 12:24:20;;;;;;;4.10;3.37;;;;;;;;;;4928912;29;20214;-73
2023/12/14 12:26:45;;;;;;;5.57;3.73;;;;;;;;;;4930449;29;20180;-73
2023/12/14 12:29:10;;;;;;;4.30;3.57;;;;;;;;;;4931129;29;20275;-73
2023/12/14 12:31:36;;;;;;;4.40;4.00;;;;;;;;;;4930013;29;20182;-72
2023/12/14 12:34:02;;;;;;;4.17;3.77;;;;;;;;;;4922931;29;20188;-74
2023/12/14 12:36:27;;;;;;;4.83;3.20;;;;;;;;;;4922548;29;20224;-74
2023/12/14 12:38:52;;;;;;;6.13;4.23;;;;;;;;;;4924974;29;20177;-72
2023/12/14 12:41:17;;;;;;;4.00;2.40;;;;;;;;;;4924625;29;20259;-73
2023/12/14 12:43:43;;;;;;;5.37;3.83;;;;;;;;;;4925733;29;20182;-72
2023/12/14 12:46:09;;;;;;;5.53;4.53;;;;;;;;;;4927750;29;20239;-73
2023/12/14 12:48:35;;;;;;;5.93;4.87;;;;;;;;;;4926234;29;20179;-73
2023/12/14 12:51:00;;;;;;;5.80;4.27;;;;;;;;;;4927989;29;20238;-73
2023/12/14 12:53:26;;;;;;;5.50;3.47;;;;;;;;;;4928858;29;20273;-74
2023/12/14 12:55:51;;;;;;;7.30;6.33;;;;;;;;;;4928083;29;20201;-73
2023/12/14 12:58:17;;;;;;;10.03;7.70;;;;;;;;;;4929428;29;20194;-72
2023/12/14 13:00:42;;;;;;;8.40;6.83;;;;;;;;;;4925941;29;20267;-73
2023/12/14 13:03:07;;;;;;;8.07;6.03;;;;;;;;;;4929749;29;20216;-74
2023/12/14 13:05:32;;;;;;;9.70;5.50;;;;;;;;;;4929716;29;20228;-73
2023/12/14 13:07:58;;;;;;;8.03;6.00;;;;;;;;;;4927738;29;20177;-73
2023/12/14 13:10:26;;;;;;;6.53;5.10;;;;;;;;;;4932559;29;20189;-73
2023/12/14 13:12:52;;;;;;;6.77;5.97;;;;;;;;;;4930705;29;20406;-73
2023/12/14 13:15:18;;;;;;;8.43;6.17;;;;;;;;;;4931138;29;20190;-73
2023/12/14 13:17:44;;;;;;;7.50;6.47;;;;;;;;;;4932111;29;20184;-73
2023/12/14 13:20:09;;;;;;;8.20;6.67;;;;;;;;;;4930188;29;20234;-73
2023/12/14 13:22:34;;;;;;;8.93;6.60;;;;;;;;;;4934060;29;20232;-72
2023/12/14 13:25:00;;;;;;;7.83;6.27;;;;;;;;;;4932695;29;20205;-73
2023/12/14 13:27:25;;;;;;;7.77;6.50;;;;;;;;;;4931201;29;20207;-73
2023/12/14 13:29:50;;;;;;;8.60;6.20;;;;;;;;;;4931609;29;20182;-73
2023/12/14 13:32:15;;;;;;;7.33;5.93;;;;;;;;;;4930815;29;20216;-72
2023/12/14 13:34:41;;;;;;;7.60;5.90;;;;;;;;;;4929452;29;20195;-72
2023/12/14 13:37:08;;;;;;;6.63;4.87;;;;;;;;;;4930584;29;20268;-73
2023/12/14 13:39:37;;;;;;;7.73;5.60;;;;;;;;;;4923340;29;20187;-73
2023/12/14 13:42:03;;;;;;;7.63;5.83;;;;;;;;;;4932057;29;20189;-73
2023/12/14 13:44:28;;;;;;;6.23;4.73;;;;;;;;;;4927774;29;20208;-73
2023/12/14 13:46:53;;;;;;;5.33;4.63;;;;;;;;;;4923532;29;20206;-73
2023/12/14 13:49:18;;;;;;;6.17;5.17;;;;;;;;;;4929806;29;20182;-74
2023/12/14 13:51:44;;;;;;;4.87;3.10;;;;;;;;;;4924878;29;20185;-73
2023/12/14 13:54:09;;;;;;;4.40;3.83;;;;;;;;;;4920115;29;20192;-73
2023/12/14 13:56:34;;;;;;;4.13;3.23;;;;;;;;;;4931322;29;20175;-73
2023/12/14 13:58:59;;;;;;;5.60;4.37;;;;;;;;;;4947614;29;20213;-73
2023/12/14 14:01:25;;;;;;;4.73;3.77;;;;;;;;;;4926983;29;20216;-73
2023/12/14 14:03:50;;;;;;;4.57;3.60;;;;;;;;;;4927007;29;20178;-73
2023/12/14 14:06:15;;;;;;;5.23;4.23;;;;;;;;;;4930268;29;20202;-73
2023/12/14 14:08:40;;;;;;;24.30;22.27;;;;;;;;;;4930085;29;20259;-73
2023/12/14 14:11:05;;;;;;;7.93;3.87;;;;;;;;;;4930086;29;20242;-74
2023/12/14 14:13:31;;;;;;;6.50;5.47;;;;;;;;;;4929750;29;20216;-73
2023/12/14 14:15:57;;;;;;;6.10;3.67;;;;;;;;;;4928156;29;20220;-73
2023/12/14 14:18:22;;;;;;;6.30;5.70;;;;;;;;;;4929344;29;20193;-73
2023/12/14 14:20:47;;;;;;;8.63;4.80;;;;;;;;;;4927718;29;20193;-73
2023/12/14 14:23:12;;;;;;;6.30;5.33;;;;;;;;;;4928653;29;20188;-73
2023/12/14 14:25:38;;;;;;;6.17;5.53;;;;;;;;;;4931149;29;20197;-73
2023/12/14 14:28:03;;;;;;;5.80;5.30;;;;;;;;;;4929962;29;20264;-73
2023/12/14 14:30:28;;;;;;;6.40;3.97;;;;;;;;;;4927629;29;20240;-73
2023/12/14 14:32:54;;;;;;;6.30;4.57;;;;;;;;;;4921396;29;20173;-73
2023/12/14 14:35:19;;;;;;;6.03;5.10;;;;;;;;;;4922801;29;20190;-73